首页
METAR-TAF:

METAR-TAF

机场 :

姆万扎, 坦桑尼亚

纬度: 02-28S, 经度: 032-55E, 海拔: 1139米

当前天气观测

该预报发布于1小时和19分钟前的17:00 UTC
静风
温度 25°C
湿度 65%
气压 1015 hPa
能见度10公里或以上
少量云层高于2400英尺
少量云层高于2500英尺, 积雨云.

METAR: HTMW 281700Z 00000KT 9999 FEW024 FEW025CB 25/18 Q1015 NOSIG

时间: 21:19 (18:19 UTC)

预报

该预报发布于7小时和19分钟前的11:00 UTC
预报有效从28日的 12点(UTC)到 29日的 12点(UTC)
风速10节,风向西北
能见度10公里或以上
散云层高于2300英尺
少量云层高于2400英尺, 积雨云.
多云层高于8000英尺
成为
从 28日的 18点(UTC)到 28日的 18点(UTC)
风速节,风向
少量云层高于2100英尺
少量云层高于2200英尺, 积雨云.
成为
从 29日的 02点(UTC)到 29日的 04点(UTC)
风速10节,风向东转东南
成为
从 29日的 10点(UTC)到 29日的 12点(UTC)
风速10节,风向西转西北
散云层高于2500英尺
少量云层高于2600英尺, 积雨云.
散云层高于9000英尺

TAF: HTMW 281100Z 2812/2912 32010KT 9999 TS/RA SCT023 FEW024CB BKN080 BECMG 2818/2818 00000KT NSW FEW021 FEW022CB BECMG 2902/2904 12010KT BECMG 2910/2912 30010KT SCT025 FEW026CB SCT090

超过4000个机场的气象观测和天气预报(METAR&TAF报告)。

可查询的气象台以黄色和红色小点在地图上表示。

将鼠标移到小点上方,可查看气象台名称。

然后点击查看天气观测和预报。

如需切换地图:点击带黑十字的绿色按钮放大地图;点击带横线的绿色按钮缩小地图;或者点击绿色箭头查看邻近地区的地图。


METAR-TAF: